Time;durP1;ratioP1;P1;durP2;ratioP2;P2;SDS_P1;SDS_P2;PMS_P1;PMS_P2;Temp;Humidity;BMP_temperature;BMP_pressure;BME280_temperature;BME280_humidity;BME280_pressure;Samples;Min_cycle;Max_cycle;Signal;HPM_P1;HPM_P2
2023/08/01 00:01:20;;;;;;;5.05;3.03;;;20.40;99.90;;;;;;4986149;28;20550;-72
2023/08/01 00:04:06;;;;;;;4.18;3.10;;;20.30;99.90;;;;;;4988632;28;20133;-73
2023/08/01 00:06:52;;;;;;;6.13;2.67;;;20.30;99.90;;;;;;4987348;28;20038;-71
2023/08/01 00:09:38;;;;;;;5.35;2.90;;;20.30;99.90;;;;;;4988298;28;20424;-73
2023/08/01 00:12:24;;;;;;;6.57;2.97;;;20.30;99.90;;;;;;4989344;28;20048;-72
2023/08/01 00:15:11;;;;;;;4.82;3.08;;;20.20;99.90;;;;;;4988890;28;20050;-72
2023/08/01 00:17:56;;;;;;;5.93;3.55;;;20.20;99.90;;;;;;4989888;28;20077;-72
2023/08/01 00:20:42;;;;;;;5.57;3.08;;;20.20;99.90;;;;;;4978746;28;20030;-72
2023/08/01 00:23:28;;;;;;;3.95;2.60;;;20.20;99.90;;;;;;4988817;28;20045;-72
2023/08/01 00:26:14;;;;;;;5.25;2.90;;;20.10;99.90;;;;;;4987390;28;20045;-74
2023/08/01 00:29:01;;;;;;;6.50;2.92;;;20.10;99.90;;;;;;4988129;28;20045;-72
2023/08/01 00:31:46;;;;;;;5.97;2.90;;;20.10;99.90;;;;;;4987305;28;20052;-73
2023/08/01 00:34:32;;;;;;;6.38;2.85;;;20.00;99.90;;;;;;4984633;28;20085;-72
2023/08/01 00:37:18;;;;;;;5.07;2.92;;;20.10;99.90;;;;;;4986829;28;20050;-73
2023/08/01 00:40:05;;;;;;;4.20;2.72;;;20.00;99.90;;;;;;4988844;28;20092;-73
2023/08/01 00:42:55;;;;;;;4.20;2.10;;;20.00;99.90;;;;;;4977266;28;20042;-72
2023/08/01 00:45:41;;;;;;;4.05;2.38;;;19.90;99.90;;;;;;4973440;28;20125;-71
2023/08/01 00:48:29;;;;;;;4.55;2.20;;;19.90;99.90;;;;;;4990409;28;20046;-75
2023/08/01 00:51:17;;;;;;;4.47;2.30;;;19.90;99.90;;;;;;4983109;28;20137;-73
2023/08/01 00:54:03;;;;;;;4.05;2.45;;;19.90;99.90;;;;;;4976112;28;20058;-75
2023/08/01 00:56:49;;;;;;;3.90;2.50;;;19.80;99.90;;;;;;4967830;28;20066;-74
2023/08/01 00:59:35;;;;;;;4.05;1.95;;;19.70;99.90;;;;;;4971300;28;20038;-75
2023/08/01 01:02:21;;;;;;;5.30;2.65;;;19.70;99.90;;;;;;4986398;28;20042;-74
2023/08/01 01:05:07;;;;;;;3.33;1.63;;;19.70;99.90;;;;;;4983240;28;20514;-69
2023/08/01 01:07:55;;;;;;;4.53;2.10;;;19.60;99.90;;;;;;4968303;28;20507;-69
2023/08/01 01:10:41;;;;;;;3.78;1.90;;;19.60;99.90;;;;;;4973642;28;20045;-69
2023/08/01 01:13:27;;;;;;;6.47;2.35;;;19.60;99.90;;;;;;4988174;28;20693;-69
2023/08/01 01:16:12;;;;;;;5.43;2.25;;;19.50;99.90;;;;;;4986636;28;20076;-68
2023/08/01 01:18:58;;;;;;;4.45;2.58;;;19.50;99.90;;;;;;4989263;28;20042;-69
2023/08/01 01:21:46;;;;;;;4.13;2.42;;;19.50;99.90;;;;;;4987179;28;20050;-70
2023/08/01 01:24:33;;;;;;;3.05;1.98;;;19.50;99.90;;;;;;4982738;28;20050;-69
2023/08/01 01:27:19;;;;;;;3.70;2.00;;;19.50;99.90;;;;;;4977496;28;20050;-68
2023/08/01 01:30:06;;;;;;;3.80;2.30;;;19.40;99.90;;;;;;4993709;28;20117;-68
2023/08/01 01:32:53;;;;;;;4.15;2.25;;;19.40;99.90;;;;;;4988418;28;20045;-69
2023/08/01 01:35:39;;;;;;;4.45;2.42;;;19.40;99.90;;;;;;4987094;28;20046;-68
2023/08/01 01:38:25;;;;;;;3.83;2.65;;;19.40;99.90;;;;;;4988591;28;20464;-69
2023/08/01 01:41:11;;;;;;;4.63;2.50;;;19.40;99.90;;;;;;4988070;28;20035;-68
2023/08/01 01:43:57;;;;;;;3.63;2.53;;;19.40;99.90;;;;;;4991405;28;20050;-69
2023/08/01 01:46:43;;;;;;;6.43;2.80;;;19.30;99.90;;;;;;4992248;28;20129;-68
2023/08/01 01:49:29;;;;;;;5.72;2.80;;;19.40;99.90;;;;;;4993707;28;20144;-69
2023/08/01 01:52:15;;;;;;;5.13;2.40;;;19.40;99.90;;;;;;4982577;28;20050;-69
2023/08/01 01:55:01;;;;;;;4.63;2.63;;;19.40;99.90;;;;;;4990837;28;20049;-70
2023/08/01 01:57:47;;;;;;;6.45;2.95;;;19.40;99.90;;;;;;4982150;28;20054;-69
2023/08/01 02:00:33;;;;;;;5.60;2.58;;;19.40;99.90;;;;;;4986035;28;20091;-69
2023/08/01 02:03:19;;;;;;;5.38;3.15;;;19.30;99.90;;;;;;4992290;28;20522;-71
2023/08/01 02:06:05;;;;;;;3.97;2.58;;;19.30;99.90;;;;;;4983646;28;20528;-71
2023/08/01 02:08:51;;;;;;;4.43;2.22;;;19.30;99.90;;;;;;4974135;28;20078;-71
2023/08/01 02:11:37;;;;;;;5.00;2.63;;;19.30;99.90;;;;;;4984247;28;20401;-71
2023/08/01 02:14:23;;;;;;;6.45;3.38;;;19.30;99.90;;;;;;4976706;28;20078;-71
2023/08/01 02:17:09;;;;;;;4.50;2.50;;;19.30;99.90;;;;;;4990923;28;20342;-71
2023/08/01 02:19:54;;;;;;;4.63;2.70;;;19.30;99.90;;;;;;4990615;28;20047;-71
2023/08/01 02:22:40;;;;;;;8.93;2.92;;;19.30;99.90;;;;;;4981382;28;20038;-70
2023/08/01 02:25:26;;;;;;;3.90;2.70;;;19.30;99.90;;;;;;4991867;28;20116;-69
2023/08/01 02:28:12;;;;;;;4.97;2.88;;;19.30;99.90;;;;;;4987231;28;20039;-69
2023/08/01 02:30:58;;;;;;;4.38;2.65;;;19.30;99.90;;;;;;4973227;28;20489;-70
2023/08/01 02:33:44;;;;;;;5.45;2.85;;;19.30;99.90;;;;;;4989100;28;20432;-71
2023/08/01 02:36:30;;;;;;;5.25;3.00;;;19.30;99.90;;;;;;4976701;28;20476;-71
2023/08/01 02:39:16;;;;;;;4.75;2.90;;;19.20;99.90;;;;;;4991034;28;20434;-71
2023/08/01 02:42:02;;;;;;;4.60;2.47;;;19.30;99.90;;;;;;4980795;28;20566;-71
2023/08/01 02:44:48;;;;;;;4.53;2.90;;;19.20;99.90;;;;;;4977255;28;20055;-70
2023/08/01 02:47:34;;;;;;;7.10;3.05;;;19.20;99.90;;;;;;4981698;28;20045;-71
2023/08/01 02:50:20;;;;;;;5.32;2.90;;;19.20;99.90;;;;;;4974724;28;20050;-71
2023/08/01 02:53:06;;;;;;;4.78;2.88;;;19.20;99.90;;;;;;4989827;28;20062;-71
2023/08/01 02:55:52;;;;;;;4.97;3.13;;;19.20;99.90;;;;;;4990743;28;20577;-71
2023/08/01 02:58:38;;;;;;;5.10;3.10;;;19.20;99.90;;;;;;4989548;28;20454;-70
2023/08/01 03:01:24;;;;;;;4.82;2.95;;;19.20;99.90;;;;;;4987650;28;20046;-69
2023/08/01 03:04:11;;;;;;;5.72;2.67;;;19.20;99.90;;;;;;4980115;28;20444;-69
2023/08/01 03:06:57;;;;;;;7.32;2.92;;;19.20;99.90;;;;;;4990280;28;20411;-69
2023/08/01 03:09:43;;;;;;;5.80;2.78;;;19.20;99.90;;;;;;4976846;28;20038;-71
2023/08/01 03:12:29;;;;;;;6.10;2.95;;;19.10;99.90;;;;;;4990609;28;20632;-71
2023/08/01 03:15:15;;;;;;;4.93;2.70;;;19.20;99.90;;;;;;4979537;28;20046;-71
2023/08/01 03:18:01;;;;;;;5.60;2.30;;;19.20;99.90;;;;;;4977696;28;20128;-71
2023/08/01 03:20:47;;;;;;;5.75;2.70;;;19.10;99.90;;;;;;4972071;28;20046;-71
2023/08/01 03:23:33;;;;;;;11.32;2.95;;;19.20;99.90;;;;;;4986964;28;20053;-71
2023/08/01 03:26:19;;;;;;;4.43;2.58;;;19.20;99.90;;;;;;4990729;28;20411;-70
2023/08/01 03:29:05;;;;;;;5.07;2.63;;;19.10;99.90;;;;;;4989297;28;20054;-70
2023/08/01 03:31:51;;;;;;;5.10;3.35;;;19.20;99.90;;;;;;4987001;28;20050;-72
2023/08/01 03:34:39;;;;;;;4.25;2.85;;;19.20;99.90;;;;;;4973686;28;20064;-69
2023/08/01 03:37:24;;;;;;;5.45;2.83;;;19.20;99.90;;;;;;4989712;28;20196;-66
2023/08/01 03:40:10;;;;;;;6.28;3.15;;;19.20;99.90;;;;;;4977980;28;20043;-65
2023/08/01 03:42:56;;;;;;;5.88;3.13;;;19.20;99.90;;;;;;4978421;28;20105;-65
2023/08/01 03:45:42;;;;;;;5.45;2.92;;;19.20;99.90;;;;;;4982034;28;20038;-65
2023/08/01 03:48:28;;;;;;;4.93;2.70;;;19.20;99.90;;;;;;4988783;28;20042;-65
2023/08/01 03:51:15;;;;;;;5.38;2.95;;;19.10;99.90;;;;;;4990980;28;20049;-65
2023/08/01 03:54:01;;;;;;;5.05;2.28;;;19.20;99.90;;;;;;4962905;28;20536;-67
2023/08/01 03:56:47;;;;;;;6.25;2.95;;;19.10;99.90;;;;;;4954169;28;20432;-66
2023/08/01 03:59:33;;;;;;;6.25;3.28;;;19.10;99.90;;;;;;4952729;29;20416;-65
2023/08/01 04:02:19;;;;;;;3.95;2.30;;;19.10;99.90;;;;;;4956378;28;20507;-66
2023/08/01 04:05:05;;;;;;;6.95;3.10;;;19.10;99.90;;;;;;4970602;28;20099;-67
2023/08/01 04:07:51;;;;;;;10.38;2.80;;;19.10;99.90;;;;;;4970125;28;20043;-67
2023/08/01 04:10:37;;;;;;;5.97;2.78;;;19.10;99.90;;;;;;4970466;28;20074;-66
2023/08/01 04:13:22;;;;;;;4.20;2.50;;;19.20;99.90;;;;;;4964209;28;20042;-66
2023/08/01 04:16:08;;;;;;;5.15;2.45;;;19.10;99.90;;;;;;4970250;28;20459;-66
2023/08/01 04:18:54;;;;;;;7.13;2.95;;;19.20;99.90;;;;;;4969266;28;20046;-67
2023/08/01 04:21:40;;;;;;;5.70;2.60;;;19.20;99.90;;;;;;4970485;28;20198;-66
2023/08/01 04:24:27;;;;;;;5.50;3.25;;;19.20;99.90;;;;;;4955645;28;20357;-66
2023/08/01 04:27:13;;;;;;;5.70;2.42;;;19.20;99.90;;;;;;4959383;28;20050;-66
2023/08/01 04:29:59;;;;;;;3.78;2.63;;;19.30;99.90;;;;;;4961310;28;20039;-66
2023/08/01 04:32:45;;;;;;;3.67;2.20;;;19.30;99.90;;;;;;4969123;28;20042;-65
2023/08/01 04:35:31;;;;;;;4.43;2.53;;;19.30;99.90;;;;;;4962258;28;20101;-65
2023/08/01 04:38:17;;;;;;;3.80;2.30;;;19.30;99.90;;;;;;4964098;28;20130;-65
2023/08/01 04:41:03;;;;;;;4.20;2.40;;;19.30;99.90;;;;;;4966063;28;20478;-65
2023/08/01 04:43:49;;;;;;;3.88;2.70;;;19.40;99.90;;;;;;4969408;28;20045;-65
2023/08/01 04:46:35;;;;;;;5.70;2.90;;;19.40;99.90;;;;;;4968866;28;20069;-64
2023/08/01 04:49:21;;;;;;;4.57;2.05;;;19.40;99.90;;;;;;4960159;28;20089;-64
2023/08/01 04:52:07;;;;;;;5.65;2.47;;;19.50;99.90;;;;;;4966925;28;20177;-67
2023/08/01 04:54:53;;;;;;;4.88;2.58;;;19.50;99.90;;;;;;4987862;28;20046;-67
2023/08/01 04:57:39;;;;;;;3.53;2.50;;;19.50;99.90;;;;;;4979076;28;20415;-68
2023/08/01 05:00:25;;;;;;;4.30;2.53;;;19.50;99.90;;;;;;4988603;28;20157;-68
2023/08/01 05:03:11;;;;;;;3.25;2.17;;;19.50;99.90;;;;;;4989394;28;20046;-68
2023/08/01 05:05:57;;;;;;;4.10;2.55;;;19.50;99.90;;;;;;4977400;28;20047;-67
2023/08/01 05:08:43;;;;;;;4.88;2.72;;;19.50;99.90;;;;;;4981318;28;20526;-68
2023/08/01 05:11:29;;;;;;;4.45;2.83;;;19.50;99.90;;;;;;4970930;28;20054;-67
2023/08/01 05:14:15;;;;;;;4.78;2.47;;;19.50;99.90;;;;;;4989910;28;20565;-68
2023/08/01 05:17:01;;;;;;;5.05;2.67;;;19.50;99.90;;;;;;4971591;28;20640;-67
2023/08/01 05:19:47;;;;;;;3.47;2.20;;;19.60;99.90;;;;;;4990730;28;20492;-67
2023/08/01 05:22:34;;;;;;;5.43;2.97;;;19.60;99.90;;;;;;4989537;28;20046;-66
2023/08/01 05:25:20;;;;;;;3.70;2.58;;;19.60;99.90;;;;;;4980512;28;20451;-68
2023/08/01 05:28:06;;;;;;;5.18;2.50;;;19.60;99.90;;;;;;4986958;28;20045;-67
2023/08/01 05:30:54;;;;;;;5.70;2.78;;;19.70;99.90;;;;;;4989007;28;20125;-67
2023/08/01 05:33:39;;;;;;;6.30;2.58;;;19.70;99.90;;;;;;4987490;28;20042;-67
2023/08/01 05:36:25;;;;;;;3.25;2.22;;;19.70;99.90;;;;;;4981934;28;20137;-68
2023/08/01 05:39:11;;;;;;;5.28;2.60;;;19.70;99.90;;;;;;4985544;28;20867;-66
2023/08/01 05:41:57;;;;;;;5.47;2.33;;;19.80;99.90;;;;;;4973802;28;20038;-68
2023/08/01 05:44:43;;;;;;;6.55;2.88;;;19.80;99.90;;;;;;4975106;28;20050;-67
2023/08/01 05:47:30;;;;;;;4.95;2.95;;;19.80;99.90;;;;;;4974152;28;20074;-67
2023/08/01 05:50:16;;;;;;;5.95;2.58;;;19.90;99.90;;;;;;4989375;28;20567;-67
2023/08/01 05:53:01;;;;;;;5.47;3.28;;;19.90;99.90;;;;;;4985941;28;20207;-67
2023/08/01 05:55:47;;;;;;;3.50;2.10;;;19.90;99.90;;;;;;4979682;28;20038;-67
2023/08/01 05:58:34;;;;;;;4.20;2.42;;;19.90;99.90;;;;;;4985001;28;20047;-67
2023/08/01 06:01:20;;;;;;;5.72;2.50;;;19.90;99.90;;;;;;4979036;28;20456;-68
2023/08/01 06:04:05;;;;;;;4.25;2.70;;;19.90;99.90;;;;;;4988082;28;20082;-68
2023/08/01 06:06:51;;;;;;;5.38;2.55;;;19.90;99.90;;;;;;4976596;28;20113;-69
2023/08/01 06:09:37;;;;;;;5.38;2.40;;;19.90;99.90;;;;;;4981061;28;20042;-67
2023/08/01 06:12:23;;;;;;;4.88;2.95;;;19.90;99.90;;;;;;4979743;28;20501;-68
2023/08/01 06:15:10;;;;;;;5.50;2.65;;;20.00;99.90;;;;;;4978215;28;20042;-69
2023/08/01 06:17:55;;;;;;;5.60;2.33;;;20.00;99.90;;;;;;4984347;28;20054;-68
2023/08/01 06:20:41;;;;;;;4.43;2.58;;;20.10;99.90;;;;;;4982202;28;20042;-68
2023/08/01 06:23:27;;;;;;;4.85;2.58;;;20.10;99.90;;;;;;4988804;28;20053;-67
2023/08/01 06:26:15;;;;;;;5.03;2.63;;;20.10;99.90;;;;;;4985817;28;20770;-66
2023/08/01 06:29:01;;;;;;;4.35;2.33;;;20.20;99.90;;;;;;4992214;28;20518;-68
2023/08/01 06:31:47;;;;;;;4.60;2.55;;;20.20;99.90;;;;;;4992203;28;20054;-72
2023/08/01 06:34:33;;;;;;;3.90;2.28;;;20.20;99.90;;;;;;4979051;28;20042;-72
2023/08/01 06:37:19;;;;;;;5.00;2.42;;;20.20;99.90;;;;;;4980261;28;20046;-73
2023/08/01 06:40:05;;;;;;;4.15;2.80;;;20.30;99.90;;;;;;4992905;28;20042;-68
2023/08/01 06:42:51;;;;;;;5.75;3.00;;;20.30;99.90;;;;;;4988962;28;20051;-69
2023/08/01 06:45:37;;;;;;;4.55;2.20;;;20.30;99.90;;;;;;4971164;28;20126;-69
2023/08/01 06:48:23;;;;;;;4.63;2.55;;;20.30;99.90;;;;;;4991340;28;20038;-69
2023/08/01 06:51:09;;;;;;;4.07;2.33;;;20.30;99.90;;;;;;4978425;28;20049;-69
2023/08/01 06:53:55;;;;;;;5.22;2.55;;;20.30;99.90;;;;;;4988807;28;20422;-69
2023/08/01 06:56:47;;;;;;;4.18;2.28;;;20.30;99.90;;;;;;4983681;28;20054;-69
2023/08/01 06:59:33;;;;;;;4.35;2.20;;;20.40;99.90;;;;;;4985671;28;20132;-68
2023/08/01 07:02:19;;;;;;;3.97;2.17;;;20.30;99.90;;;;;;4988977;28;20050;-67
2023/08/01 07:05:05;;;;;;;6.05;2.95;;;20.40;99.90;;;;;;4990361;28;20097;-67
2023/08/01 07:07:51;;;;;;;3.13;2.03;;;20.40;99.90;;;;;;4983308;28;20109;-67
2023/08/01 07:10:37;;;;;;;5.82;2.95;;;20.40;99.90;;;;;;4987226;28;20054;-67
2023/08/01 07:13:25;;;;;;;4.97;3.03;;;20.50;99.90;;;;;;4985173;28;20074;-67
2023/08/01 07:16:11;;;;;;;4.53;2.35;;;20.50;99.90;;;;;;4986875;28;20042;-67
2023/08/01 07:18:59;;;;;;;3.45;2.50;;;20.60;99.90;;;;;;4985866;28;20050;-67
2023/08/01 07:21:47;;;;;;;4.82;2.33;;;20.60;99.90;;;;;;4989227;28;20034;-68
2023/08/01 07:24:33;;;;;;;4.65;2.45;;;20.60;99.90;;;;;;4987638;28;20077;-68
2023/08/01 07:27:20;;;;;;;4.13;2.17;;;20.70;99.90;;;;;;4980941;28;20030;-69
2023/08/01 07:30:06;;;;;;;4.95;2.33;;;20.80;99.90;;;;;;4982495;28;20046;-69
2023/08/01 07:32:52;;;;;;;4.00;1.95;;;20.90;99.90;;;;;;4981162;28;20043;-67
2023/08/01 07:35:38;;;;;;;4.20;2.55;;;21.00;99.90;;;;;;4975481;28;20916;-68
2023/08/01 07:38:24;;;;;;;4.85;1.90;;;21.10;99.90;;;;;;4981768;28;20753;-67
2023/08/01 07:41:10;;;;;;;5.32;2.30;;;21.20;99.90;;;;;;4985610;28;20081;-68
2023/08/01 07:43:56;;;;;;;6.60;2.10;;;21.20;99.90;;;;;;4989868;28;20104;-70
2023/08/01 07:46:42;;;;;;;5.75;2.35;;;21.30;99.90;;;;;;4982513;28;20105;-68
2023/08/01 07:49:28;;;;;;;3.35;2.35;;;21.40;99.90;;;;;;4976244;28;20042;-68
2023/08/01 07:52:14;;;;;;;3.25;2.40;;;21.50;99.90;;;;;;4982631;28;20471;-68
2023/08/01 07:55:00;;;;;;;3.58;2.03;;;21.50;99.90;;;;;;4985098;28;20046;-68
2023/08/01 07:57:47;;;;;;;2.58;2.03;;;21.60;99.90;;;;;;4985119;28;20062;-68
2023/08/01 08:00:35;;;;;;;4.45;2.30;;;21.70;99.90;;;;;;4990764;28;20415;-68
2023/08/01 08:03:23;;;;;;;3.70;2.08;;;21.80;99.90;;;;;;4988683;28;20050;-68
2023/08/01 08:06:09;;;;;;;4.10;2.20;;;22.00;99.90;;;;;;4990243;28;20042;-68
2023/08/01 08:08:54;;;;;;;4.32;2.03;;;22.10;99.90;;;;;;4974353;28;20532;-68
2023/08/01 08:11:40;;;;;;;3.38;1.65;;;22.10;99.90;;;;;;4988940;28;20046;-69
2023/08/01 08:14:26;;;;;;;3.67;2.05;;;22.10;99.90;;;;;;4971228;28;20106;-69
2023/08/01 08:17:12;;;;;;;3.88;1.83;;;22.20;99.90;;;;;;4978560;28;20054;-68
2023/08/01 08:19:58;;;;;;;5.15;1.85;;;22.30;99.90;;;;;;4983967;28;20499;-68
2023/08/01 08:22:44;;;;;;;4.45;1.88;;;22.40;99.90;;;;;;4969504;28;20050;-69
2023/08/01 08:25:30;;;;;;;3.58;2.08;;;22.50;99.90;;;;;;4984652;28;20097;-67
2023/08/01 08:28:28;;;;;;;4.25;1.98;;;22.60;99.90;;;;;;4975954;28;20042;-69
2023/08/01 08:31:14;;;;;;;2.63;1.70;;;22.80;99.90;;;;;;4987747;28;20156;-68
2023/08/01 08:34:00;;;;;;;3.15;1.77;;;22.90;99.90;;;;;;4987859;28;20050;-69
2023/08/01 08:36:46;;;;;;;4.07;1.80;;;23.00;99.90;;;;;;4986384;28;20054;-69
2023/08/01 08:39:32;;;;;;;3.25;1.58;;;23.10;99.90;;;;;;4989334;28;20081;-69
2023/08/01 08:42:19;;;;;;;4.00;1.83;;;23.20;99.90;;;;;;4972684;28;20503;-69
2023/08/01 08:45:06;;;;;;;2.65;1.58;;;23.40;99.90;;;;;;4971363;28;20046;-69
2023/08/01 08:47:58;;;;;;;2.53;1.55;;;23.40;99.90;;;;;;4979105;28;20411;-68
2023/08/01 08:50:46;;;;;;;2.40;1.42;;;23.50;99.90;;;;;;4986217;28;20046;-69
2023/08/01 08:53:32;;;;;;;3.30;1.50;;;23.50;99.90;;;;;;4985880;28;20496;-69
2023/08/01 08:56:19;;;;;;;2.05;1.58;;;23.60;99.90;;;;;;4987662;28;20096;-69
2023/08/01 08:59:06;;;;;;;3.22;1.50;;;23.50;99.90;;;;;;4974552;28;20050;-69
2023/08/01 09:01:52;;;;;;;2.00;1.40;;;23.50;99.90;;;;;;4986123;28;20054;-69
2023/08/01 09:04:38;;;;;;;2.05;1.40;;;23.50;99.90;;;;;;4987324;28;20046;-69
2023/08/01 09:07:30;;;;;;;2.10;1.38;;;23.50;99.90;;;;;;4972671;28;20587;-70
2023/08/01 09:10:16;;;;;;;2.25;1.30;;;23.60;99.90;;;;;;4972661;28;20043;-69
2023/08/01 09:13:02;;;;;;;2.30;1.52;;;23.70;99.90;;;;;;4987130;28;20054;-68
2023/08/01 09:15:48;;;;;;;2.83;1.58;;;23.70;99.90;;;;;;4987672;28;20043;-69
2023/08/01 09:18:34;;;;;;;4.30;1.70;;;23.70;99.90;;;;;;4985915;28;20046;-69
2023/08/01 09:21:21;;;;;;;1.67;1.23;;;23.80;99.90;;;;;;4988781;28;20050;-71
2023/08/01 09:24:12;;;;;;;4.28;1.58;;;23.90;99.90;;;;;;4985722;28;20050;-69
2023/08/01 09:27:04;;;;;;;2.15;1.40;;;24.00;99.90;;;;;;4986951;28;20093;-68
2023/08/01 09:29:50;;;;;;;2.08;1.30;;;24.10;99.90;;;;;;4987678;28;20030;-69
2023/08/01 09:32:36;;;;;;;2.10;0.98;;;24.20;99.90;;;;;;4984705;28;20053;-69
2023/08/01 09:35:23;;;;;;;1.45;1.27;;;24.30;99.90;;;;;;4972215;28;20046;-69
2023/08/01 09:38:09;;;;;;;1.30;1.20;;;24.30;99.80;;;;;;4972637;28;20049;-68
2023/08/01 09:40:55;;;;;;;2.13;1.33;;;24.40;99.30;;;;;;4985821;28;20499;-69
2023/08/01 09:43:42;;;;;;;3.10;2.05;;;24.30;98.80;;;;;;4986396;28;20080;-69
2023/08/01 09:46:28;;;;;;;4.97;1.58;;;24.20;98.80;;;;;;4984633;28;20046;-69
2023/08/01 09:49:15;;;;;;;2.38;2.03;;;24.10;98.80;;;;;;4987582;28;20050;-69
2023/08/01 09:52:01;;;;;;;1.98;1.38;;;23.90;98.90;;;;;;4991030;28;20196;-71
2023/08/01 09:54:47;;;;;;;2.17;1.38;;;23.80;98.60;;;;;;4989396;28;20488;-71
2023/08/01 09:57:37;;;;;;;2.30;1.42;;;23.70;98.70;;;;;;4991654;28;20466;-71
2023/08/01 10:00:25;;;;;;;2.28;1.20;;;23.80;98.80;;;;;;4988391;28;20043;-69
2023/08/01 10:03:12;;;;;;;3.33;1.48;;;23.80;98.90;;;;;;4990371;28;20081;-69
2023/08/01 10:05:59;;;;;;;2.03;1.60;;;23.80;98.90;;;;;;4991446;28;20046;-70
2023/08/01 10:08:45;;;;;;;3.05;1.45;;;23.90;98.90;;;;;;4989106;28;20406;-68
2023/08/01 10:11:34;;;;;;;2.03;1.10;;;23.90;98.60;;;;;;4990827;28;20547;-69
2023/08/01 10:14:21;;;;;;;2.13;1.10;;;23.90;98.50;;;;;;4985001;28;20501;-68
2023/08/01 10:17:08;;;;;;;3.10;1.75;;;23.90;98.40;;;;;;4988119;28;20113;-68
2023/08/01 10:19:56;;;;;;;2.42;1.40;;;23.80;98.30;;;;;;4989308;28;20046;-69
2023/08/01 10:22:43;;;;;;;1.38;1.00;;;23.80;98.30;;;;;;4988446;28;20034;-69
2023/08/01 10:25:30;;;;;;;3.42;1.00;;;23.70;98.30;;;;;;4960898;28;20145;-69
2023/08/01 10:28:16;;;;;;;2.58;1.30;;;23.60;98.30;;;;;;4987745;28;20152;-69
2023/08/01 10:31:11;;;;;;;1.30;0.93;;;23.50;98.40;;;;;;4990499;28;20046;-69
2023/08/01 10:34:12;;;;;;;2.67;1.70;;;23.50;98.40;;;;;;4992064;28;20077;-68
2023/08/01 10:36:59;;;;;;;2.58;1.70;;;23.50;98.60;;;;;;4983737;28;20470;-68
2023/08/01 10:39:56;;;;;;;2.13;1.27;;;23.40;98.60;;;;;;4987920;28;20141;-69
2023/08/01 10:42:44;;;;;;;2.47;1.48;;;23.40;98.70;;;;;;4982819;28;20101;-68
2023/08/01 10:45:31;;;;;;;2.17;1.30;;;23.40;98.70;;;;;;4975196;28;20053;-68
2023/08/01 10:48:17;;;;;;;3.22;1.52;;;23.40;98.80;;;;;;4988122;28;20047;-69
2023/08/01 10:51:03;;;;;;;1.65;1.15;;;23.30;98.80;;;;;;4991633;28;20042;-70
2023/08/01 10:53:50;;;;;;;3.58;0.93;;;23.30;99.00;;;;;;4979779;28;20516;-70
2023/08/01 10:56:36;;;;;;;1.35;0.80;;;23.10;99.30;;;;;;4981122;28;20079;-70
2023/08/01 10:59:22;;;;;;;1.38;0.80;;;22.90;99.50;;;;;;4984837;28;20174;-70
2023/08/01 11:02:08;;;;;;;1.77;0.90;;;22.70;99.80;;;;;;4984458;28;20491;-69
2023/08/01 11:04:56;;;;;;;1.73;0.77;;;22.60;99.90;;;;;;4989871;28;20125;-69
2023/08/01 11:07:52;;;;;;;1.33;0.98;;;22.50;99.90;;;;;;4987948;28;20046;-69
2023/08/01 11:10:38;;;;;;;4.25;1.45;;;22.40;99.90;;;;;;4983190;28;20037;-69
2023/08/01 11:13:24;;;;;;;2.25;1.00;;;22.40;99.90;;;;;;4985308;28;20399;-71
2023/08/01 11:16:12;;;;;;;5.13;1.27;;;22.30;99.90;;;;;;4989445;28;20042;-70
2023/08/01 11:18:58;;;;;;;0.82;0.77;;;22.20;99.90;;;;;;4989123;28;20050;-69
2023/08/01 11:21:44;;;;;;;2.38;1.02;;;22.10;99.90;;;;;;4989312;28;20056;-68
2023/08/01 11:24:30;;;;;;;1.35;1.10;;;22.00;99.90;;;;;;4984327;28;20129;-68
2023/08/01 11:27:16;;;;;;;1.42;0.80;;;22.00;99.90;;;;;;4987291;28;20027;-69
2023/08/01 11:30:03;;;;;;;1.42;0.98;;;21.90;99.90;;;;;;4973655;28;20054;-69
2023/08/01 11:32:49;;;;;;;1.25;1.05;;;21.80;99.90;;;;;;4987497;28;20053;-67
2023/08/01 11:35:35;;;;;;;2.03;1.13;;;21.90;99.90;;;;;;4975247;28;20578;-68
2023/08/01 11:38:23;;;;;;;2.92;1.40;;;21.90;99.90;;;;;;4973774;28;20050;-69
2023/08/01 11:41:09;;;;;;;2.40;1.17;;;22.00;99.90;;;;;;4989994;28;20038;-69
2023/08/01 11:43:55;;;;;;;1.75;1.27;;;22.10;99.90;;;;;;4973816;28;20034;-71
2023/08/01 11:46:41;;;;;;;3.60;1.65;;;22.10;99.90;;;;;;4987670;28;20046;-71
2023/08/01 11:49:28;;;;;;;4.53;1.52;;;22.20;99.90;;;;;;4982858;28;20114;-71
2023/08/01 11:52:24;;;;;;;1.80;1.30;;;22.20;99.90;;;;;;4986107;28;20042;-71
2023/08/01 11:55:22;;;;;;;2.78;1.58;;;22.20;99.90;;;;;;4981901;28;20038;-69
2023/08/01 11:58:08;;;;;;;3.08;1.70;;;22.20;99.90;;;;;;4977704;28;20492;-69
2023/08/01 12:01:12;;;;;;;5.38;2.25;;;22.20;99.90;;;;;;4989948;28;20415;-71
2023/08/01 12:03:58;;;;;;;5.05;1.95;;;22.30;99.90;;;;;;4989918;28;20115;-71
2023/08/01 12:06:44;;;;;;;3.72;2.03;;;22.30;99.90;;;;;;4985458;28;20095;-72
2023/08/01 12:09:33;;;;;;;2.75;2.03;;;22.30;99.90;;;;;;4981738;28;20046;-71
2023/08/01 12:12:19;;;;;;;4.55;2.17;;;22.40;99.90;;;;;;4986137;28;20030;-69
2023/08/01 12:15:05;;;;;;;4.95;2.30;;;22.40;99.90;;;;;;4988939;28;20054;-70
2023/08/01 12:17:51;;;;;;;4.97;1.85;;;22.50;99.90;;;;;;4979988;28;20499;-73
2023/08/01 12:20:37;;;;;;;3.47;2.45;;;22.60;99.90;;;;;;4989450;28;20038;-70
2023/08/01 12:23:23;;;;;;;6.20;2.92;;;22.70;99.90;;;;;;4979006;28;20112;-71
2023/08/01 12:26:09;;;;;;;2.83;1.90;;;22.70;99.90;;;;;;4989184;28;20038;-71
2023/08/01 12:28:55;;;;;;;2.83;1.98;;;22.60;99.90;;;;;;4987720;28;20057;-69
2023/08/01 12:31:41;;;;;;;3.05;1.88;;;22.70;99.90;;;;;;4985914;28;20522;-69
2023/08/01 12:34:27;;;;;;;6.35;2.70;;;22.80;99.90;;;;;;4979712;28;20046;-68
2023/08/01 12:37:12;;;;;;;4.03;2.40;;;22.80;99.90;;;;;;4974657;28;20100;-71
2023/08/01 12:39:59;;;;;;;3.80;2.00;;;22.90;99.90;;;;;;4960551;28;20154;-71
2023/08/01 12:42:45;;;;;;;5.32;2.67;;;23.00;99.70;;;;;;4985571;28;20070;-70
2023/08/01 12:45:31;;;;;;;2.25;1.70;;;23.00;99.70;;;;;;4981359;28;20038;-70
2023/08/01 12:48:17;;;;;;;3.22;2.08;;;23.20;99.60;;;;;;4983529;28;20050;-70
2023/08/01 12:51:03;;;;;;;3.00;2.00;;;23.30;99.30;;;;;;4987198;28;20088;-70
2023/08/01 12:53:49;;;;;;;7.25;2.35;;;23.30;99.20;;;;;;4976359;28;20089;-70
2023/08/01 12:56:34;;;;;;;8.85;2.42;;;23.30;99.20;;;;;;4986100;28;20492;-70
2023/08/01 12:59:20;;;;;;;3.78;2.25;;;23.40;98.70;;;;;;4987584;28;20164;-70
2023/08/01 13:02:08;;;;;;;5.00;2.15;;;23.40;98.60;;;;;;4982581;28;20046;-70
2023/08/01 13:04:54;;;;;;;4.15;2.83;;;23.40;98.60;;;;;;4983900;28;20046;-70
2023/08/01 13:07:40;;;;;;;4.47;2.80;;;23.40;98.70;;;;;;4967959;28;20034;-70
2023/08/01 13:10:26;;;;;;;4.32;2.25;;;23.40;98.60;;;;;;4989312;28;20066;-69
2023/08/01 13:13:12;;;;;;;4.55;2.53;;;23.40;98.50;;;;;;4981604;28;20113;-68
2023/08/01 13:15:58;;;;;;;4.13;2.47;;;23.50;98.20;;;;;;4973666;28;20527;-71
2023/08/01 13:18:44;;;;;;;5.88;2.70;;;23.60;98.10;;;;;;4974737;28;20115;-72
2023/08/01 13:21:30;;;;;;;5.90;2.63;;;23.70;98.10;;;;;;4992282;28;20120;-75
2023/08/01 13:24:16;;;;;;;4.75;2.67;;;23.70;98.10;;;;;;4982955;28;20101;-80
2023/08/01 13:27:02;;;;;;;4.40;2.33;;;23.70;98.10;;;;;;4990207;28;20085;-79
2023/08/01 13:29:50;;;;;;;7.18;2.20;;;23.80;97.80;;;;;;4991224;28;20048;-77
2023/08/01 13:32:36;;;;;;;5.65;2.30;;;23.90;97.70;;;;;;4989389;28;20038;-76
2023/08/01 13:35:22;;;;;;;7.05;2.67;;;24.00;97.50;;;;;;4993316;28;20054;-76
2023/08/01 13:38:08;;;;;;;4.35;2.63;;;24.20;97.50;;;;;;4990738;28;20515;-76
2023/08/01 13:40:54;;;;;;;6.93;2.58;;;24.30;97.30;;;;;;4973409;28;20100;-76
2023/08/01 13:43:40;;;;;;;5.43;2.38;;;24.40;97.00;;;;;;4989375;28;20389;-77
2023/08/01 13:46:26;;;;;;;6.88;2.85;;;24.50;97.00;;;;;;4991304;28;20483;-77
2023/08/01 13:49:13;;;;;;;5.60;2.25;;;24.50;96.90;;;;;;4980339;28;20042;-75
2023/08/01 13:51:59;;;;;;;3.08;2.00;;;24.60;96.70;;;;;;4988681;28;20042;-75
2023/08/01 13:54:45;;;;;;;3.33;1.90;;;24.70;96.50;;;;;;4992158;28;20097;-75
2023/08/01 13:57:32;;;;;;;4.43;2.75;;;24.80;96.40;;;;;;4989035;28;20086;-76
2023/08/01 14:00:19;;;;;;;3.65;2.20;;;24.80;96.10;;;;;;4992274;28;20085;-75
2023/08/01 14:03:05;;;;;;;4.10;2.20;;;24.90;95.90;;;;;;4989176;28;20078;-76
2023/08/01 14:05:50;;;;;;;3.47;2.17;;;25.00;95.80;;;;;;4992390;28;20466;-76
2023/08/01 14:08:37;;;;;;;3.80;2.28;;;25.00;95.70;;;;;;4987877;28;20050;-75
2023/08/01 14:11:23;;;;;;;5.13;2.30;;;25.10;95.40;;;;;;4991467;28;20046;-76
2023/08/01 14:14:09;;;;;;;2.85;1.85;;;25.30;95.00;;;;;;4989470;28;20100;-76
2023/08/01 14:16:55;;;;;;;3.72;2.20;;;25.40;94.70;;;;;;4990852;28;20073;-75
2023/08/01 14:19:41;;;;;;;4.97;2.40;;;25.40;94.60;;;;;;4990306;28;20101;-75
2023/08/01 14:22:27;;;;;;;4.07;1.80;;;25.60;94.40;;;;;;4990319;28;20510;-75
2023/08/01 14:25:13;;;;;;;4.35;2.05;;;25.60;93.90;;;;;;4990368;28;20479;-74
2023/08/01 14:27:59;;;;;;;3.25;2.30;;;25.60;93.90;;;;;;4988824;28;20034;-77